Weather History for Corpus Christi NAS, TX

Change the Weather History Date:

Sunday, April 6, 2014

  Actual Average Record
Temperature  
Mean Temperature 68 °F -  
Max Temperature 77 °F 76 °F 86 °F (2005)
Min Temperature 59 °F 62 °F 55 °F (2009)
Cooling Degree Days 2    
Growing Degree Days 18 (Base 50)    
Moisture  
Dew Point 68 °F    
Average Humidity 96    
Maximum Humidity 100    
Minimum Humidity 81    
Precipitation  
Precipitation 0.09 in - - ()
Sea Level Pressure  
Sea Level Pressure 29.71 in    
Wind  
Wind Speed 11 mph (SE)    
Max Wind Speed 23 mph    
Max Gust Speed 29 mph    
Visibility 4 miles    
Events Fog , Rain    
Averages and records for this station are not official NWS values.
T = Trace of Precipitation, MM = Missing Value Source: NWS Daily Summary

Daily Weather History Graph

Daily Weather History Graph

Search for Another Location

Airport:

Trip Planner

Search our weather history database for the weather conditions in past years. The results will help you decide how hot, cold, wet, or windy it might be!

Date:

Astronomy

Apr. 06, 2014 Rise Set
Actual Time 7:13 AM CDT 7:49 PM CDT
Civil Twilight 6:50 AM CDT 8:13 PM CDT
Nautical Twilight 6:22 AM CDT 8:40 PM CDT
Astronomical Twilight 5:54 AM CDT 9:09 PM CDT
Moon 12:32 PM CDT (4/6) 1:29 AM CDT (4/6)
Length of Visible Light 13h 22m
Length of Day
12h 35m
Waxing Crescent, 44% of the Moon is Illuminated
Apr 6
Waxing Crescent
Apr 7
First Quarter
Apr 15
Full
Apr 22
Last Quarter
Apr 29
New

Hourly Weather History & Observations

Time (CDT) Temp. Dew Point Humidity Pressure Visibility Wind Dir Wind Speed Gust Speed Precip Events Conditions
12:26 AM 66.9 °F 66.9 °F 100% 29.79 in 1.5 mi East 12.7 mph - 0.00 in   Overcast
12:41 AM 68.0 °F 66.9 °F 96% 29.79 in 1.2 mi East 11.5 mph - 0.00 in   Overcast
12:54 AM 68.0 °F 66.2 °F 94% 29.79 in 1.5 mi East 13.8 mph - 0.00 in   Overcast
12:56 AM 68.0 °F 66.9 °F 96% 29.79 in 1.5 mi ENE 15.0 mph - 0.00 in   Overcast
1:41 AM 68.0 °F 68.0 °F 100% 29.77 in 1.2 mi ENE 13.8 mph - N/A   Overcast
1:56 AM 68.0 °F 68.0 °F 100% 29.76 in 1.0 mi East 12.7 mph - N/A   Overcast
2:10 AM 68.0 °F 68.0 °F 100% 29.76 in 0.8 mi East 13.8 mph - N/A   Mist
2:25 AM 68.0 °F 68.0 °F 100% 29.75 in 1.0 mi East 13.8 mph - N/A   Mist
2:32 AM 68.0 °F 68.0 °F 100% 29.75 in 0.8 mi East 13.8 mph - N/A   Mist
2:56 AM 68.0 °F 68.0 °F 100% 29.75 in 0.8 mi East 13.8 mph - N/A   Mist
3:15 AM 68.0 °F 68.0 °F 100% 29.74 in 0.5 mi East 11.5 mph - N/A Fog Fog
3:56 AM 68.0 °F 68.0 °F 100% 29.73 in 0.5 mi East 9.2 mph - N/A Fog Fog
4:17 AM 69.1 °F 69.1 °F 100% 29.72 in 0.8 mi East 10.4 mph - N/A   Mist
4:46 AM 69.1 °F 69.1 °F 100% 29.71 in 0.5 mi East 11.5 mph - N/A Fog Fog
4:56 AM 69.1 °F 69.1 °F 100% 29.70 in 0.5 mi East 10.4 mph - N/A Fog Fog
5:11 AM 69.1 °F 69.1 °F 100% 29.70 in 0.8 mi East 9.2 mph - N/A   Mist
5:56 AM 69.1 °F 69.1 °F 100% 29.70 in 0.5 mi East 9.2 mph - N/A Fog Fog
6:35 AM 70.0 °F 69.1 °F 97% 29.71 in 0.8 mi SE 9.2 mph - N/A   Mist
6:56 AM 70.0 °F 70.0 °F 100% 29.71 in 0.8 mi SSE 6.9 mph - 0.00 in Rain Light Rain
7:11 AM 70.0 °F 70.0 °F 100% 29.70 in 1.0 mi SSE 10.4 mph - 0.00 in   Mist
7:40 AM 70.0 °F 70.0 °F 100% 29.71 in 1.5 mi South 6.9 mph - 0.03 in Rain Rain
7:48 AM 70.0 °F 70.0 °F 100% 29.71 in 1.0 mi South 8.1 mph - 0.03 in Rain Light Rain
7:56 AM 70.0 °F 70.0 °F 100% 29.71 in 1.0 mi South 9.2 mph - 0.03 in Rain Light Rain
8:03 AM 70.0 °F 70.0 °F 100% 29.71 in 1.5 mi South 8.1 mph - 0.01 in Rain Rain
8:12 AM 70.0 °F 70.0 °F 100% 29.71 in 3.0 mi South 9.2 mph - 0.02 in Rain Light Rain
8:22 AM 70.0 °F 70.0 °F 100% 29.72 in 1.8 mi South 6.9 mph - 0.02 in   Overcast
8:26 AM 70.0 °F 70.0 °F 100% 29.72 in 1.0 mi South 6.9 mph - 0.02 in   Overcast
8:35 AM 70.0 °F 70.0 °F 100% 29.71 in 0.8 mi South 6.9 mph - 0.02 in   Overcast
8:54 AM 69.8 °F 69.8 °F 100% 29.72 in 1.2 mi SSW 4.6 mph - 0.02 in   Overcast
8:56 AM 71.1 °F 70.0 °F 96% 29.71 in 1.2 mi SSW 5.8 mph - 0.02 in   Overcast
9:03 AM 71.1 °F 70.0 °F 96% 29.72 in 1.8 mi South 5.8 mph - N/A   Overcast
9:10 AM 71.1 °F 70.0 °F 96% 29.71 in 2.0 mi South 5.8 mph - 0.00 in Rain Light Rain
9:19 AM 71.1 °F 70.0 °F 96% 29.71 in 1.8 mi South 6.9 mph - 0.02 in Rain Light Rain
9:23 AM 71.1 °F 71.1 °F 100% 29.72 in 2.5 mi South 9.2 mph - 0.03 in Rain Light Rain
9:31 AM 71.1 °F 70.0 °F 96% 29.71 in 4.0 mi South 8.1 mph - 0.03 in Rain Light Rain
9:52 AM 71.6 °F 71.6 °F 100% 29.72 in 4.0 mi South 8.1 mph - 0.03 in Rain Light Rain
9:56 AM 71.1 °F 71.1 °F 100% 29.72 in 4.0 mi South 9.2 mph - 0.03 in Rain Light Rain
10:56 AM 71.1 °F 71.1 °F 100% 29.71 in 2.5 mi SSE 6.9 mph - 0.00 in Rain Light Rain
11:10 AM 71.1 °F 71.1 °F 100% 29.71 in 3.0 mi South 5.8 mph - 0.00 in   Overcast
11:25 AM 71.1 °F 71.1 °F 100% 29.71 in 2.5 mi South 8.1 mph - 0.01 in Rain Light Rain
11:33 AM 71.1 °F 71.1 °F 100% 29.71 in 3.0 mi South 5.8 mph - 0.01 in   Overcast
11:42 AM 72.0 °F 71.1 °F 97% 29.71 in 2.5 mi South 5.8 mph - 0.01 in Rain Light Rain
11:51 AM 71.6 °F 71.6 °F 100% 29.70 in 3.0 mi South 5.8 mph - 0.01 in   Overcast
11:56 AM 73.0 °F 72.0 °F 96% 29.70 in 3.0 mi South 5.8 mph - 0.01 in   Overcast
12:27 PM 73.0 °F 72.0 °F 96% 29.69 in 3.0 mi South 4.6 mph - 0.00 in   Overcast
12:48 PM 75.0 °F 73.0 °F 94% 29.69 in 5.0 mi SSW 5.8 mph - 0.00 in   Overcast
12:56 PM 75.0 °F 73.0 °F 94% 29.69 in 5.0 mi SW 5.8 mph - 0.00 in   Overcast
1:28 PM 75.0 °F 73.0 °F 94% 29.67 in 6.0 mi SW 5.8 mph - N/A   Overcast
1:56 PM 73.9 °F 72.0 °F 93% 29.67 in 7.0 mi West 10.4 mph - N/A   Overcast
2:08 PM 73.9 °F 71.1 °F 91% 29.67 in 7.0 mi West 8.1 mph - 0.00 in Rain Light Rain
2:21 PM 73.9 °F 72.0 °F 93% 29.66 in 7.0 mi West 6.9 mph - 0.00 in   Overcast
2:56 PM 75.0 °F 71.1 °F 87% 29.64 in 9.0 mi West 8.1 mph - 0.00 in   Overcast
3:41 PM 73.9 °F 70.0 °F 87% 29.63 in 10.0 mi NNW 18.4 mph 24.2 mph N/A   Overcast
3:56 PM 69.1 °F 66.0 °F 90% 29.63 in 6.0 mi NW 16.1 mph - N/A   Overcast
4:22 PM 70.0 °F 66.0 °F 87% 29.63 in 10.0 mi NNW 15.0 mph - N/A   Overcast
4:56 PM 70.0 °F 66.9 °F 90% 29.63 in 10.0 mi NNW 16.1 mph - N/A   Overcast
5:56 PM 69.1 °F 66.0 °F 90% 29.65 in 9.0 mi NNW 21.9 mph - N/A   Overcast
6:39 PM 66.9 °F 64.0 °F 90% 29.68 in 10.0 mi NNW 23.0 mph 28.8 mph N/A   Overcast
6:56 PM 66.0 °F 62.1 °F 87% 29.70 in 10.0 mi North 19.6 mph - N/A   Overcast
7:15 PM 64.0 °F 60.1 °F 87% 29.71 in 10.0 mi North 23.0 mph - N/A   Overcast
7:49 PM 62.1 °F 57.9 °F 86% 29.71 in 10.0 mi North 20.7 mph - N/A   Overcast
7:56 PM 62.1 °F 57.9 °F 86% 29.72 in 10.0 mi North 18.4 mph - N/A   Overcast
8:56 PM 61.0 °F 55.9 °F 83% 29.72 in 10.0 mi NNE 18.4 mph - N/A   Clear
9:56 PM 61.0 °F 55.0 °F 81% 29.77 in 10.0 mi North 18.4 mph - N/A   Clear
10:56 PM 60.1 °F 55.0 °F 83% 29.80 in 10.0 mi North 19.6 mph - N/A   Clear
11:56 PM 59.0 °F 54.0 °F 83% 29.79 in 10.0 mi NNE 12.7 mph - N/A   Clear